Time;durP1;ratioP1;P1;durP2;ratioP2;P2;SDS_P1;SDS_P2;PMS_P1;PMS_P2;Temp;Humidity;BMP_temperature;BMP_pressure;BME280_temperature;BME280_humidity;BME280_pressure;Samples;Min_cycle;Max_cycle;Signal;HPM_P1;HPM_P2
2022/04/23 00:01:32;;;;;;;;;;;;;;;12.31;59.86;98554.16;4309746;33;20314;-93
2022/04/23 00:03:57;;;;;;;;;;;;;;;12.32;59.86;98548.00;4309887;33;25611;-94
2022/04/23 00:06:23;;;;;;;;;;;;;;;12.22;59.86;98558.97;4310806;33;19992;-93
2022/04/23 00:08:48;;;;;;;;;;;;;;;12.31;59.87;98554.16;4323493;33;20063;-94
2022/04/23 00:11:13;;;;;;;;;;;;;;;12.47;59.87;98558.38;4311126;33;19975;-94
2022/04/23 00:13:38;;;;;;;;;;;;;;;12.34;59.86;98556.59;4310181;33;21699;-94
2022/04/23 00:16:07;;;;;;;;;;;;;;;12.43;59.88;98556.88;4310096;33;19996;-93
2022/04/23 00:18:32;;;;;;;;;;;;;;;12.45;59.87;98557.62;4310174;33;19984;-94
2022/04/23 00:20:57;;;;;;;;;;;;;;;12.41;59.87;98561.34;4310197;33;19995;-93
2022/04/23 00:23:23;;;;;;;;;;;;;;;12.39;59.87;98560.59;4310008;33;19983;-92
2022/04/23 00:25:51;;;;;;;;;;;;;;;12.24;59.86;98561.47;4310222;33;20045;-93
2022/04/23 00:28:17;;;;;;;;;;;;;;;12.43;59.86;98561.25;4311826;33;20009;-93
2022/04/23 00:30:44;;;;;;;;;;;;;;;12.16;59.85;98564.53;4310246;33;19991;-93
2022/04/23 00:33:10;;;;;;;;;;;;;;;12.07;59.85;98565.06;4310367;33;19968;-93
2022/04/23 00:35:36;;;;;;;;;;;;;;;12.05;59.84;98566.91;4310033;33;20059;-94
2022/04/23 00:38:02;;;;;;;;;;;;;;;12.27;59.85;98564.75;4310245;33;20056;-94
2022/04/23 00:40:27;;;;;;;;;;;;;;;11.98;59.86;98562.97;4310376;33;19992;-94
2022/04/23 00:42:53;;;;;;;;;;;;;;;12.05;59.84;98563.44;4309859;33;20315;-93
2022/04/23 00:45:22;;;;;;;;;;;;;;;12.20;59.86;98560.81;4322179;33;20007;-95
2022/04/23 00:47:47;;;;;;;;;;;;;;;12.06;59.85;98570.34;4310205;33;20409;-94
2022/04/23 00:50:12;;;;;;;;;;;;;;;12.10;59.85;98572.72;4310253;33;20303;-95
2022/04/23 00:52:37;;;;;;;;;;;;;;;12.22;59.86;98571.16;4307884;33;20008;-95
2022/04/23 00:55:03;;;;;;;;;;;;;;;12.06;59.86;98570.34;4307758;33;20280;-94
2022/04/23 00:57:28;;;;;;;;;;;;;;;12.08;59.85;98568.53;4307815;33;20047;-94
2022/04/23 00:59:54;;;;;;;;;;;;;;;12.05;59.84;98573.88;4307227;33;25374;-94
2022/04/23 01:02:19;;;;;;;;;;;;;;;12.14;59.86;98570.78;4307772;33;20012;-94
2022/04/23 01:04:44;;;;;;;;;;;;;;;12.00;59.85;98576.75;4307843;33;20000;-94
2022/04/23 01:07:12;;;;;;;;;;;;;;;11.95;59.84;98573.56;4307738;33;19994;-94
2022/04/23 01:09:38;;;;;;;;;;;;;;;12.16;59.85;98576.75;4307511;33;20514;-95
2022/04/23 01:12:03;;;;;;;;;;;;;;;12.30;59.86;98568.94;4307703;33;20013;-95
2022/04/23 01:14:29;;;;;;;;;;;;;;;12.22;59.86;98569.41;4307536;33;20003;-95
2022/04/23 01:16:55;;;;;;;;;;;;;;;12.26;59.86;98570.91;4307495;33;19999;-94
2022/04/23 01:19:22;;;;;;;;;;;;;;;12.49;59.87;98571.34;4307683;33;20333;-93
2022/04/23 01:21:47;;;;;;;;;;;;;;;12.21;59.86;98570.31;4307790;33;20006;-96
2022/04/23 01:24:12;;;;;;;;;;;;;;;12.10;59.85;98582.31;4307711;33;20003;-93
2022/04/23 01:26:38;;;;;;;;;;;;;;;12.20;59.85;98586.06;4307654;33;20013;-94
2022/04/23 01:29:04;;;;;;;;;;;;;;;12.17;59.85;98579.25;4307622;33;19987;-95
2022/04/23 01:31:29;;;;;;;;;;;;;;;12.10;59.85;98577.09;4307583;33;20290;-95
2022/04/23 01:33:55;;;;;;;;;;;;;;;12.11;59.85;98578.78;4307763;33;20000;-94
2022/04/23 01:36:20;;;;;;;;;;;;;;;12.13;59.86;98574.31;4307462;33;20028;-94
2022/04/23 01:38:45;;;;;;;;;;;;;;;12.04;59.84;98574.81;4307507;33;20003;-95
2022/04/23 01:41:10;;;;;;;;;;;;;;;12.07;59.85;98564.25;4307450;33;19995;-94
2022/04/23 01:43:36;;;;;;;;;;;;;;;12.07;59.85;98572.91;4307416;33;20000;-94
2022/04/23 01:46:01;;;;;;;;;;;;;;;11.99;59.85;98567.25;4307436;33;20012;-94
2022/04/23 01:48:27;;;;;;;;;;;;;;;12.07;59.85;98574.66;4307364;33;19992;-93
2022/04/23 01:50:53;;;;;;;;;;;;;;;11.87;59.84;98570.56;4307556;33;19992;-94
2022/04/23 01:53:19;;;;;;;;;;;;;;;11.81;59.83;98571.72;4307440;33;20353;-93
2022/04/23 01:55:44;;;;;;;;;;;;;;;11.74;59.83;98583.41;4307776;33;20020;-94
2022/04/23 01:58:09;;;;;;;;;;;;;;;11.82;59.83;98573.41;4307842;33;20250;-94
2022/04/23 02:00:36;;;;;;;;;;;;;;;11.97;59.84;98582.16;4308085;33;19988;-96
2022/04/23 02:03:02;;;;;;;;;;;;;;;11.85;59.84;98582.84;4308570;33;19972;-94
2022/04/23 02:05:27;;;;;;;;;;;;;;;11.95;59.84;98582.25;4307321;33;20035;-94
2022/04/23 02:07:52;;;;;;;;;;;;;;;11.62;59.82;98586.69;4306659;33;24166;-94
2022/04/23 02:10:17;;;;;;;;;;;;;;;11.70;59.83;98589.72;4306743;33;20019;-94
2022/04/23 02:12:43;;;;;;;;;;;;;;;11.78;59.84;98589.28;4307065;33;20019;-96
2022/04/23 02:15:08;;;;;;;;;;;;;;;11.63;59.82;98585.78;4307045;33;20028;-94
2022/04/23 02:17:37;;;;;;;;;;;;;;;11.72;59.83;98585.25;4306831;33;20097;-93
2022/04/23 02:20:03;;;;;;;;;;;;;;;11.66;59.82;98583.00;4306863;33;19988;-94
2022/04/23 02:22:28;;;;;;;;;;;;;;;11.65;59.82;98582.16;4306917;33;19988;-93
2022/04/23 02:24:54;;;;;;;;;;;;;;;11.70;59.83;98581.91;4308012;33;19992;-94
2022/04/23 02:27:19;;;;;;;;;;;;;;;11.70;59.83;98584.50;4308593;33;19992;-94
2022/04/23 02:29:44;;;;;;;;;;;;;;;11.57;59.82;98591.28;4308968;33;20000;-94
2022/04/23 02:32:09;;;;;;;;;;;;;;;11.63;59.82;98589.22;4308097;33;21710;-94
2022/04/23 02:34:35;;;;;;;;;;;;;;;11.63;59.82;98588.38;4308540;33;19984;-93
2022/04/23 02:37:00;;;;;;;;;;;;;;;11.76;59.83;98593.75;4308783;33;19987;-92
2022/04/23 02:39:25;;;;;;;;;;;;;;;11.72;59.83;98602.66;4308345;33;20779;-94
2022/04/23 02:41:50;;;;;;;;;;;;;;;11.75;59.82;98602.50;4308606;33;20346;-94
2022/04/23 02:44:17;;;;;;;;;;;;;;;11.86;59.84;98605.41;4308068;33;25327;-94
2022/04/23 02:46:43;;;;;;;;;;;;;;;11.86;59.84;98602.78;4308672;33;20373;-94
2022/04/23 02:49:09;;;;;;;;;;;;;;;11.93;59.84;98602.34;4308855;33;20006;-94
2022/04/23 02:51:34;;;;;;;;;;;;;;;12.12;59.84;98599.56;4308503;33;20019;-94
2022/04/23 02:54:00;;;;;;;;;;;;;;;12.03;59.84;98596.59;4308328;33;19994;-93
2022/04/23 02:56:26;;;;;;;;;;;;;;;11.88;59.84;98598.31;4308663;33;20003;-94
2022/04/23 02:58:51;;;;;;;;;;;;;;;11.67;59.82;98602.91;4308509;33;20393;-94
2022/04/23 03:01:17;;;;;;;;;;;;;;;11.84;59.84;98602.88;4308493;33;19999;-94
2022/04/23 03:03:43;;;;;;;;;;;;;;;11.80;59.83;98603.94;4308336;33;19975;-94
2022/04/23 03:06:08;;;;;;;;;;;;;;;11.82;59.83;98604.69;4308727;33;19984;-93
2022/04/23 03:08:37;;;;;;;;;;;;;;;11.89;59.83;98606.06;4308466;33;19988;-94
2022/04/23 03:11:03;;;;;;;;;;;;;;;11.75;59.82;98602.50;4308559;33;20007;-94
2022/04/23 03:13:28;;;;;;;;;;;;;;;11.59;59.83;98592.91;4308509;33;20051;-94
2022/04/23 03:15:53;;;;;;;;;;;;;;;11.76;59.83;98605.00;4307942;33;21936;-94
2022/04/23 03:18:19;;;;;;;;;;;;;;;11.76;59.83;98599.78;4308346;33;20000;-94
2022/04/23 03:20:44;;;;;;;;;;;;;;;11.61;59.83;98598.06;4308503;33;20002;-93
2022/04/23 03:23:09;;;;;;;;;;;;;;;11.59;59.83;98598.13;4308258;33;19998;-93
2022/04/23 03:25:35;;;;;;;;;;;;;;;11.79;59.83;98602.25;4308292;33;20036;-94
2022/04/23 03:28:00;;;;;;;;;;;;;;;11.90;59.84;98599.91;4308084;33;20289;-94
2022/04/23 03:30:26;;;;;;;;;;;;;;;11.86;59.84;98608.84;4308495;33;20000;-95
2022/04/23 03:32:51;;;;;;;;;;;;;;;11.84;59.84;98600.28;4308304;33;20321;-93
2022/04/23 03:35:16;;;;;;;;;;;;;;;11.85;59.84;98612.38;4307371;33;19988;-93
2022/04/23 03:37:41;;;;;;;;;;;;;;;11.77;59.83;98617.12;4307990;33;20000;-94
2022/04/23 03:40:08;;;;;;;;;;;;;;;11.77;59.83;98614.50;4308389;33;19999;-94
2022/04/23 03:42:34;;;;;;;;;;;;;;;11.86;59.84;98618.44;4308324;33;19985;-94
2022/04/23 03:45:00;;;;;;;;;;;;;;;11.70;59.83;98621.00;4308610;33;19960;-93
2022/04/23 03:47:25;;;;;;;;;;;;;;;11.84;59.84;98630.72;4308370;33;20047;-94
2022/04/23 03:49:50;;;;;;;;;;;;;;;11.72;59.83;98626.97;4308539;33;19992;-94
2022/04/23 03:52:16;;;;;;;;;;;;;;;11.79;59.83;98636.16;4310387;33;20268;-94
2022/04/23 03:54:41;;;;;;;;;;;;;;;11.85;59.84;98633.22;4311299;33;20031;-94
2022/04/23 03:57:06;;;;;;;;;;;;;;;11.97;59.84;98634.31;4323146;33;19979;-93
2022/04/23 03:59:31;;;;;;;;;;;;;;;12.15;59.85;98627.22;4310735;33;20047;-93
2022/04/23 04:02:02;;;;;;;;;;;;;;;11.96;59.84;98638.69;4310610;33;19992;-93
2022/04/23 04:04:28;;;;;;;;;;;;;;;11.59;59.82;98633.75;4311186;33;20058;-94
2022/04/23 04:06:53;;;;;;;;;;;;;;;11.86;59.84;98640.12;4310535;33;19992;-93
2022/04/23 04:09:18;;;;;;;;;;;;;;;11.67;59.83;98635.03;4310571;33;20083;-93
2022/04/23 04:12:02;;;;;;;;;;;;;;;11.74;59.82;98632.94;4310312;33;19976;-94
2022/04/23 04:14:28;;;;;;;;;;;;;;;11.69;59.83;98638.41;4312277;33;20346;-94
2022/04/23 04:16:53;;;;;;;;;;;;;;;11.77;59.83;98639.75;4310432;33;19999;-94
2022/04/23 04:19:18;;;;;;;;;;;;;;;11.83;59.84;98636.81;4310601;33;20040;-93
2022/04/23 04:21:43;;;;;;;;;;;;;;;11.97;59.84;98639.53;4310368;33;20250;-94
2022/04/23 04:24:12;;;;;;;;;;;;;;;12.07;59.85;98647.69;4310346;33;20354;-94
2022/04/23 04:26:39;;;;;;;;;;;;;;;12.11;59.85;98655.25;4310348;33;20006;-93
2022/04/23 04:29:04;;;;;;;;;;;;;;;12.08;59.85;98644.16;4310492;33;19995;-95
2022/04/23 04:31:48;;;;;;;;;;;;;;;12.09;59.85;98651.91;4310452;33;20004;-93
2022/04/23 04:34:20;;;;;;;;;;;;;;;12.16;59.85;98655.84;4312261;33;20006;-94
2022/04/23 04:36:46;;;;;;;;;;;;;;;12.23;59.85;98653.72;4310200;33;20362;-94
2022/04/23 04:39:12;;;;;;;;;;;;;;;12.43;59.86;98650.00;4310448;33;20034;-95
2022/04/23 04:41:37;;;;;;;;;;;;;;;12.26;59.85;98657.00;4310392;33;19984;-93
2022/04/23 04:44:03;;;;;;;;;;;;;;;12.17;59.85;98656.69;4310368;33;19998;-93
2022/04/23 04:46:28;;;;;;;;;;;;;;;12.16;59.85;98655.00;4322190;33;20015;-94
2022/04/23 04:48:53;;;;;;;;;;;;;;;12.34;59.85;98650.53;4309944;33;19987;-94
2022/04/23 04:51:19;;;;;;;;;;;;;;;12.31;59.86;98656.75;4310435;33;20059;-94
2022/04/23 04:53:44;;;;;;;;;;;;;;;12.23;59.86;98654.56;4307917;33;19975;-95
2022/04/23 04:56:09;;;;;;;;;;;;;;;12.39;59.86;98648.50;4307631;33;19988;-94
2022/04/23 04:58:35;;;;;;;;;;;;;;;12.26;59.85;98648.31;4307518;33;20011;-95
2022/04/23 05:01:01;;;;;;;;;;;;;;;12.19;59.85;98654.81;4307739;33;20000;-93
2022/04/23 05:03:26;;;;;;;;;;;;;;;12.25;59.85;98654.47;4307764;33;19988;-93
2022/04/23 05:05:51;;;;;;;;;;;;;;;12.29;59.86;98651.59;4307520;33;20000;-94
2022/04/23 05:08:16;;;;;;;;;;;;;;;12.22;59.86;98650.28;4307719;33;20000;-94
2022/04/23 05:10:42;;;;;;;;;;;;;;;12.29;59.86;98654.22;4307874;33;19999;-94
2022/04/23 05:13:07;;;;;;;;;;;;;;;12.26;59.85;98656.16;4307507;33;20011;-94
2022/04/23 05:15:32;;;;;;;;;;;;;;;12.37;59.87;98653.81;4307678;33;20035;-94
2022/04/23 05:17:57;;;;;;;;;;;;;;;12.47;59.87;98654.94;4307532;33;19992;-94
2022/04/23 05:20:23;;;;;;;;;;;;;;;12.60;59.88;98665.53;4307763;33;19997;-94
2022/04/23 05:22:48;;;;;;;;;;;;;;;12.58;59.88;98673.47;4307514;33;19980;-94
2022/04/23 05:25:13;;;;;;;;;;;;;;;12.62;59.88;98673.28;4307494;33;20003;-95
2022/04/23 05:27:38;;;;;;;;;;;;;;;12.91;59.89;98664.59;4307425;33;20042;-95
2022/04/23 05:30:04;;;;;;;;;;;;;;;12.81;59.88;98673.91;4307741;33;20031;-94
2022/04/23 05:32:29;;;;;;;;;;;;;;;12.80;59.88;98669.63;4307825;33;19983;-95
2022/04/23 05:34:54;;;;;;;;;;;;;;;12.75;59.89;98669.00;4319696;33;20044;-94
2022/04/23 05:37:20;;;;;;;;;;;;;;;12.84;59.89;98674.56;4307569;33;20370;-94
2022/04/23 05:39:45;;;;;;;;;;;;;;;13.13;59.91;98672.84;4307727;33;19988;-94
2022/04/23 05:42:10;;;;;;;;;;;;;;;13.12;59.90;98676.38;4307861;33;20382;-94
2022/04/23 05:44:35;;;;;;;;;;;;;;;13.16;59.90;98671.81;4308751;33;19992;-94
2022/04/23 05:47:00;;;;;;;;;;;;;;;13.27;59.92;98673.84;4307688;33;30384;-94
2022/04/23 05:49:27;;;;;;;;;;;;;;;13.46;59.92;98672.59;4307939;33;20119;-94
2022/04/23 05:51:52;;;;;;;;;;;;;;;13.68;59.93;98679.12;4307470;33;19960;-95
2022/04/23 05:54:17;;;;;;;;;;;;;;;13.82;59.94;98685.22;4307340;33;20023;-93
2022/04/23 05:56:43;;;;;;;;;;;;;;;14.00;59.95;98685.84;4306697;33;24995;-95
2022/04/23 05:59:08;;;;;;;;;;;;;;;14.04;59.96;98678.62;4306155;33;20028;-94
2022/04/23 06:01:34;;;;;;;;;;;;;;;14.07;59.95;98673.19;4307241;33;20250;-95
2022/04/23 06:03:59;;;;;;;;;;;;;;;14.14;59.96;98674.50;4307367;33;20014;-95
2022/04/23 06:06:24;;;;;;;;;;;;;;;14.55;59.98;98679.72;4306755;33;20000;-94
2022/04/23 06:08:50;;;;;;;;;;;;;;;14.66;59.98;98686.84;4306918;33;20000;-95
2022/04/23 06:11:15;;;;;;;;;;;;;;;14.74;60.00;98689.84;4307175;33;19996;-94
2022/04/23 06:13:40;;;;;;;;;;;;;;;14.86;59.99;98693.41;4306779;33;20040;-93
2022/04/23 06:16:05;;;;;;;;;;;;;;;15.08;60.00;98692.81;4306678;33;20000;-95
2022/04/23 06:18:30;;;;;;;;;;;;;;;15.15;60.01;98696.72;4307114;33;19992;-94
2022/04/23 06:20:56;;;;;;;;;;;;;;;15.39;60.02;98692.44;4306608;33;19990;-94
2022/04/23 06:23:21;;;;;;;;;;;;;;;15.24;60.01;98694.31;4306939;33;20349;-94
2022/04/23 06:25:46;;;;;;;;;;;;;;;15.38;60.02;98697.75;4306933;33;19995;-95
2022/04/23 06:28:11;;;;;;;;;;;;;;;15.44;60.03;98708.69;4306698;33;20306;-94
2022/04/23 06:30:37;;;;;;;;;;;;;;;15.45;60.02;98713.00;4306616;33;19996;-93
2022/04/23 06:33:03;;;;;;;;;;;;;;;15.54;60.02;98717.59;4306699;33;20014;-94
2022/04/23 06:35:28;;;;;;;;;;;;;;;15.58;60.03;98719.09;4306742;33;20342;-94
2022/04/23 06:37:54;;;;;;;;;;;;;;;15.56;60.04;98722.75;4306697;33;19976;-94
2022/04/23 06:40:19;;;;;;;;;;;;;;;15.62;60.04;98728.47;4306539;33;19988;-95
2022/04/23 06:42:45;;;;;;;;;;;;;;;15.77;60.04;98733.56;4306747;33;20004;-95
2022/04/23 06:45:10;;;;;;;;;;;;;;;15.60;60.04;98730.31;4306618;33;19991;-95
2022/04/23 06:47:35;;;;;;;;;;;;;;;15.43;60.03;98727.16;4306388;33;19995;-94
2022/04/23 06:50:00;;;;;;;;;;;;;;;15.53;60.03;98736.91;4306509;33;20263;-94
2022/04/23 06:52:26;;;;;;;;;;;;;;;15.68;60.04;98737.69;4308614;33;20007;-95
2022/04/23 06:54:54;;;;;;;;;;;;;;;15.72;60.04;98744.37;4308664;33;19991;-95
2022/04/23 06:57:23;;;;;;;;;;;;;;;15.73;60.04;98745.22;4309129;33;19956;-93
2022/04/23 06:59:49;;;;;;;;;;;;;;;15.67;60.04;98738.63;4321006;33;19976;-94
2022/04/23 07:02:14;;;;;;;;;;;;;;;15.80;60.05;98742.06;4308548;33;20006;-94
2022/04/23 07:04:40;;;;;;;;;;;;;;;15.62;60.03;98752.06;4308636;33;20043;-93
2022/04/23 07:07:05;;;;;;;;;;;;;;;15.75;60.04;98752.03;4308494;33;20044;-94
2022/04/23 07:09:31;;;;;;;;;;;;;;;15.80;60.05;98754.34;4308439;33;19995;-94
2022/04/23 07:11:58;;;;;;;;;;;;;;;15.69;60.04;98760.34;4310626;33;19992;-93
2022/04/23 07:14:24;;;;;;;;;;;;;;;15.68;60.04;98752.59;4310933;33;20016;-93
2022/04/23 07:16:49;;;;;;;;;;;;;;;15.70;60.04;98761.19;4310756;33;20008;-94
2022/04/23 07:19:14;;;;;;;;;;;;;;;15.98;60.05;98766.19;4310603;33;20050;-93
2022/04/23 07:21:39;;;;;;;;;;;;;;;16.04;60.06;98763.12;4310522;33;19992;-94
2022/04/23 07:24:10;;;;;;;;;;;;;;;16.11;60.07;98756.53;4310613;33;19996;-94
2022/04/23 07:26:35;;;;;;;;;;;;;;;15.90;60.05;98758.03;4311183;33;19998;-94
2022/04/23 07:29:02;;;;;;;;;;;;;;;16.19;60.07;98764.69;4322902;33;20317;-94
2022/04/23 07:31:28;;;;;;;;;;;;;;;16.14;60.06;98766.81;4322888;33;19996;-93
2022/04/23 07:39:21;;;;;;;;;;;;;;;15.86;60.04;98780.19;4325176;33;19967;-92
2022/04/23 07:41:47;;;;;;;;;;;;;;;16.12;60.06;98779.22;4310751;33;20354;-93
2022/04/23 07:44:12;;;;;;;;;;;;;;;16.03;60.06;98781.63;4310464;33;20267;-93
2022/04/23 07:46:39;;;;;;;;;;;;;;;16.08;60.06;98780.34;4310241;33;19980;-94
2022/04/23 07:49:04;;;;;;;;;;;;;;;16.02;60.07;98783.41;4310373;33;19988;-93
2022/04/23 07:51:29;;;;;;;;;;;;;;;16.10;60.07;98786.34;4310336;33;20032;-94
2022/04/23 07:53:57;;;;;;;;;;;;;;;16.04;60.06;98786.75;4307504;33;20014;-94
2022/04/23 07:56:23;;;;;;;;;;;;;;;15.80;60.05;98796.31;4307431;33;20039;-93
2022/04/23 07:58:49;;;;;;;;;;;;;;;15.90;60.05;98798.22;4320955;33;20703;-94
2022/04/23 08:01:14;;;;;;;;;;;;;;;15.81;60.05;98800.62;4307541;33;20035;-93
2022/04/23 08:03:41;;;;;;;;;;;;;;;16.05;60.06;98803.34;4307626;33;19996;-94
2022/04/23 08:06:07;;;;;;;;;;;;;;;15.88;60.05;98799.28;4307589;33;19976;-92
2022/04/23 08:08:32;;;;;;;;;;;;;;;15.91;60.05;98801.69;4307669;33;20011;-93
2022/04/23 08:10:58;;;;;;;;;;;;;;;15.62;60.03;98814.19;4307440;33;19988;-93
2022/04/23 08:13:24;;;;;;;;;;;;;;;15.53;60.03;98805.09;4307417;33;20393;-93
2022/04/23 08:15:49;;;;;;;;;;;;;;;15.67;60.03;98804.22;4307637;33;20032;-94
2022/04/23 08:18:16;;;;;;;;;;;;;;;15.80;60.05;98806.81;4307601;33;19983;-93
2022/04/23 08:20:41;;;;;;;;;;;;;;;16.07;60.06;98804.91;4307591;33;20023;-94
2022/04/23 08:23:07;;;;;;;;;;;;;;;16.23;60.08;98808.16;4306952;33;19989;-93
2022/04/23 08:25:32;;;;;;;;;;;;;;;16.31;60.08;98807.62;4307641;33;19999;-94
2022/04/23 08:30:41;;;;;;;;;;;;;;;16.70;60.10;98803.97;4319947;33;19995;-92
2022/04/23 08:33:06;;;;;;;;;;;;;;;16.91;60.11;98801.59;4307467;33;19988;-94
2022/04/23 08:35:32;;;;;;;;;;;;;;;16.88;60.11;98804.44;4307294;33;19977;-94
2022/04/23 08:37:57;;;;;;;;;;;;;;;17.10;60.12;98806.34;4307415;33;19983;-94
2022/04/23 08:40:23;;;;;;;;;;;;;;;17.17;60.13;98797.03;4307501;33;20322;-93
2022/04/23 08:42:48;;;;;;;;;;;;;;;17.55;60.15;98801.25;4307502;33;20130;-94
2022/04/23 08:45:13;;;;;;;;;;;;;;;17.81;60.16;98796.66;4307597;33;19992;-94
2022/04/23 08:47:44;;;;;;;;;;;;;;;18.01;60.17;98796.78;4307696;33;20043;-95
2022/04/23 08:50:09;;;;;;;;;;;;;;;18.41;60.19;98794.50;4307683;33;19975;-95
2022/04/23 08:52:34;;;;;;;;;;;;;;;18.69;60.21;98795.81;4307444;33;20035;-95
2022/04/23 08:55:00;;;;;;;;;;;;;;;18.65;60.19;98804.06;4307337;33;20266;-93
2022/04/23 08:57:26;;;;;;;;;;;;;;;18.74;60.20;98799.88;4307474;33;20000;-95
2022/04/23 08:59:53;;;;;;;;;;;;;;;18.95;60.22;98800.78;4307359;33;20019;-93
2022/04/23 09:02:18;;;;;;;;;;;;;;;19.02;60.22;98809.84;4307542;33;20373;-94
2022/04/23 09:04:44;;;;;;;;;;;;;;;19.04;60.22;98815.00;4307572;33;20019;-93
2022/04/23 09:07:22;;;;;;;;;;;;;;;19.09;60.23;98820.72;4307403;33;19984;-94
2022/04/23 09:09:51;;;;;;;;;;;;;;;18.95;60.22;98819.25;4307431;33;20042;-95
2022/04/23 09:12:17;;;;;;;;;;;;;;;18.92;60.22;98817.66;4307543;33;20726;-95
2022/04/23 09:14:44;;;;;;;;;;;;;;;19.16;60.24;98808.72;4307533;33;19986;-93
2022/04/23 09:25:40;;;;;;;;;;;;;;;19.14;60.22;98834.37;4320584;33;20007;-95
2022/04/23 09:28:18;;;;;;;;;;;;;;;19.16;60.23;98830.66;4308960;33;19992;-95
2022/04/23 09:30:44;;;;;;;;;;;;;;;19.19;60.23;98834.87;4308310;33;20010;-94
2022/04/23 09:33:10;;;;;;;;;;;;;;;19.19;60.23;98840.97;4307907;33;20000;-94
2022/04/23 09:35:35;;;;;;;;;;;;;;;19.20;60.23;98840.00;4307171;33;20284;-95
2022/04/23 09:38:18;;;;;;;;;;;;;;;19.17;60.23;98840.25;4306778;33;20307;-94
2022/04/23 09:40:43;;;;;;;;;;;;;;;19.11;60.22;98838.09;4307127;33;20015;-95
2022/04/23 09:43:11;;;;;;;;;;;;;;;18.88;60.21;98852.31;4307076;33;20012;-94
2022/04/23 09:45:41;;;;;;;;;;;;;;;18.69;60.21;98853.81;4307077;33;19975;-94
2022/04/23 09:48:10;;;;;;;;;;;;;;;18.40;60.19;98842.87;4307119;33;19994;-94
2022/04/23 09:50:36;;;;;;;;;;;;;;;18.45;60.19;98846.94;4307247;33;20366;-94
2022/04/23 09:53:07;;;;;;;;;;;;;;;18.32;60.19;98847.06;4306923;33;20009;-95
2022/04/23 09:55:32;;;;;;;;;;;;;;;18.37;60.19;98844.91;4306954;33;19981;-94
2022/04/23 09:57:57;;;;;;;;;;;;;;;18.27;60.18;98855.34;4306618;33;20019;-94
2022/04/23 10:00:23;;;;;;;;;;;;;;;17.93;60.17;98858.88;4306837;33;20037;-95
2022/04/23 10:02:48;;;;;;;;;;;;;;;17.90;60.16;98859.97;4307074;33;20342;-94
2022/04/23 10:05:14;;;;;;;;;;;;;;;17.89;60.16;98854.81;4306338;33;20025;-94
2022/04/23 10:07:40;;;;;;;;;;;;;;;17.92;60.16;98854.56;4306814;33;20582;-95
2022/04/23 10:10:05;;;;;;;;;;;;;;;17.85;60.17;98862.09;4306663;33;19989;-95
2022/04/23 10:12:32;;;;;;;;;;;;;;;17.82;60.16;98858.88;4306927;33;20015;-94
2022/04/23 10:14:59;;;;;;;;;;;;;;;17.96;60.17;98862.12;4306746;33;20088;-94
2022/04/23 10:17:24;;;;;;;;;;;;;;;17.98;60.17;98865.50;4306699;33;19964;-95
2022/04/23 10:19:50;;;;;;;;;;;;;;;17.85;60.17;98872.63;4306590;33;19980;-93
2022/04/23 10:22:21;;;;;;;;;;;;;;;17.90;60.16;98872.28;4306830;33;20044;-94
2022/04/23 10:24:59;;;;;;;;;;;;;;;17.74;60.16;98878.72;4306484;33;20047;-95
2022/04/23 10:27:25;;;;;;;;;;;;;;;17.76;60.15;98873.34;4306457;33;20015;-95
2022/04/23 10:29:55;;;;;;;;;;;;;;;17.72;60.16;98870.06;4306432;33;20043;-93
2022/04/23 10:32:20;;;;;;;;;;;;;;;17.85;60.17;98872.63;4306707;33;20004;-95
2022/04/23 10:34:45;;;;;;;;;;;;;;;17.85;60.17;98867.38;4306555;33;19976;-95
2022/04/23 10:37:30;;;;;;;;;;;;;;;17.90;60.16;98867.03;4306405;33;19984;-95
2022/04/23 10:39:55;;;;;;;;;;;;;;;18.05;60.17;98869.34;4307044;33;20003;-95
2022/04/23 10:42:21;;;;;;;;;;;;;;;17.98;60.17;98870.75;4306442;33;20000;-94
2022/04/23 10:44:46;;;;;;;;;;;;;;;18.11;60.18;98875.91;4306650;33;19972;-96
2022/04/23 10:47:32;;;;;;;;;;;;;;;18.12;60.18;98872.31;4308529;33;19993;-94
2022/04/23 10:50:18;;;;;;;;;;;;;;;18.16;60.18;98880.81;4308374;33;20007;-94
2022/04/23 10:52:44;;;;;;;;;;;;;;;18.32;60.19;98886.59;4312491;33;20003;-94
2022/04/23 10:55:10;;;;;;;;;;;;;;;18.36;60.19;98888.87;4311065;33;20021;-95
2022/04/23 10:57:35;;;;;;;;;;;;;;;18.40;60.19;98892.94;4310721;33;19980;-95
2022/04/23 11:00:13;;;;;;;;;;;;;;;18.49;60.20;98888.78;4310819;33;20014;-96
2022/04/23 11:02:39;;;;;;;;;;;;;;;18.59;60.20;98900.25;4323365;33;20016;-95
2022/04/23 11:13:39;;;;;;;;;;;;;;;18.69;60.21;98884.56;4325420;33;20121;-95
2022/04/23 11:16:10;;;;;;;;;;;;;;;18.53;60.21;98894.63;4311478;33;19981;-96
2022/04/23 11:18:35;;;;;;;;;;;;;;;18.32;60.20;98891.88;4323930;33;20046;-95
2022/04/23 11:21:08;;;;;;;;;;;;;;;18.38;60.20;98888.75;4312404;33;19995;-95
2022/04/23 11:23:34;;;;;;;;;;;;;;;18.38;60.20;98886.94;4311795;33;20027;-95
2022/04/23 11:26:00;;;;;;;;;;;;;;;18.45;60.19;98897.00;4310977;33;19980;-95
2022/04/23 11:28:26;;;;;;;;;;;;;;;18.26;60.19;98894.97;4310754;33;20277;-95
2022/04/23 11:30:52;;;;;;;;;;;;;;;18.20;60.18;98895.44;4310725;33;20052;-95
2022/04/23 11:33:17;;;;;;;;;;;;;;;18.01;60.17;98893.38;4311521;33;20004;-95
2022/04/23 11:35:42;;;;;;;;;;;;;;;17.80;60.17;98898.47;4310993;33;20317;-95
2022/04/23 11:38:20;;;;;;;;;;;;;;;17.72;60.16;98906.09;4310966;33;19984;-95
2022/04/23 11:40:45;;;;;;;;;;;;;;;17.70;60.16;98900.94;4310754;33;19999;-96
2022/04/23 11:43:13;;;;;;;;;;;;;;;17.61;60.16;98904.25;4310809;33;20014;-94
2022/04/23 11:45:44;;;;;;;;;;;;;;;17.50;60.14;98904.19;4310856;33;20015;-94
2022/04/23 11:48:10;;;;;;;;;;;;;;;17.60;60.15;98904.34;4310671;33;20016;-95
2022/04/23 11:50:35;;;;;;;;;;;;;;;17.50;60.14;98910.28;4310757;33;19992;-95
2022/04/23 11:53:01;;;;;;;;;;;;;;;17.44;60.14;98916.00;4309916;33;23401;-94
2022/04/23 11:55:27;;;;;;;;;;;;;;;17.49;60.15;98908.59;4310251;33;20010;-96
2022/04/23 11:57:55;;;;;;;;;;;;;;;17.63;60.16;98914.66;4309899;33;20069;-94
2022/04/23 12:00:21;;;;;;;;;;;;;;;17.69;60.15;98903.69;4310705;33;19996;-94
2022/04/23 12:02:46;;;;;;;;;;;;;;;17.86;60.17;98899.81;4310720;33;20015;-95
2022/04/23 12:05:11;;;;;;;;;;;;;;;18.13;60.18;98904.75;4310535;33;20028;-94
2022/04/23 12:07:37;;;;;;;;;;;;;;;18.23;60.19;98900.50;4310318;33;19992;-95
2022/04/23 12:10:03;;;;;;;;;;;;;;;18.53;60.21;98890.19;4310607;33;19992;-96
2022/04/23 12:12:32;;;;;;;;;;;;;;;18.97;60.22;98894.63;4310649;33;20000;-95
2022/04/23 12:14:57;;;;;;;;;;;;;;;19.25;60.24;98882.69;4310316;33;19984;-96
2022/04/23 12:17:42;;;;;;;;;;;;;;;19.54;60.25;98879.47;4322483;33;20022;-94
2022/04/23 12:20:10;;;;;;;;;;;;;;;19.78;60.27;98882.72;4310508;33;20063;-96
2022/04/23 12:22:35;;;;;;;;;;;;;;;20.08;60.29;98874.00;4310406;33;19992;-96
2022/04/23 12:25:10;;;;;;;;;;;;;;;20.18;60.29;98871.44;4310282;33;20026;-95
2022/04/23 12:27:54;;;;;;;;;;;;;;;20.43;60.30;98870.19;4310433;33;19991;-95
2022/04/23 12:41:33;;;;;;;;;;;;;;;20.34;60.29;98853.28;4324603;33;20345;-95
2022/04/23 12:44:16;;;;;;;;;;;;;;;20.20;60.29;98857.13;4310316;33;19996;-95
2022/04/23 12:46:51;;;;;;;;;;;;;;;20.00;60.27;98867.72;4310618;33;20353;-95
2022/04/23 12:49:16;;;;;;;;;;;;;;;20.09;60.28;98856.34;4310605;33;19998;-96
2022/04/23 12:51:51;;;;;;;;;;;;;;;20.27;60.29;98852.13;4309817;33;22806;-95
2022/04/23 12:54:17;;;;;;;;;;;;;;;20.14;60.28;98859.47;4310357;33;19959;-95
2022/04/23 12:56:43;;;;;;;;;;;;;;;20.07;60.27;98869.69;4310104;33;20085;-95
2022/04/23 12:59:09;;;;;;;;;;;;;;;19.98;60.28;98881.06;4310505;33;20519;-94
2022/04/23 13:01:34;;;;;;;;;;;;;;;20.04;60.28;98879.69;4322556;33;20063;-96
2022/04/23 13:04:02;;;;;;;;;;;;;;;20.05;60.28;98882.19;4310395;33;20031;-96
2022/04/23 13:09:11;;;;;;;;;;;;;;;20.12;60.28;98864.87;4324712;33;20002;-95
2022/04/23 13:11:36;;;;;;;;;;;;;;;20.03;60.28;98867.44;4311246;33;20008;-96
2022/04/23 13:14:04;;;;;;;;;;;;;;;20.38;60.29;98864.44;4311026;33;20322;-96
2022/04/23 13:16:30;;;;;;;;;;;;;;;20.65;60.31;98863.88;4310825;33;20027;-96
2022/04/23 13:18:55;;;;;;;;;;;;;;;20.56;60.31;98864.66;4313810;33;20039;-94
2022/04/23 13:21:25;;;;;;;;;;;;;;;20.72;60.32;98865.84;4322458;33;20304;-96
2022/04/23 13:23:51;;;;;;;;;;;;;;;20.82;60.32;98863.25;4310222;33;20003;-95